Main page
METAR-TAF:

METAR-TAF

Airports :

Salamanca Airport

Salamanca, Spain

latitude: 40-57N, longitude: 005-30W, elevation: 793 m

Current weather observation

The report was made 33 minutes ago, at 05:00 UTC
Calm wind
Temperature 16°C
Humidity 82%
Pressure 1015 hPa
Visibility: 8000 m

METAR: LESA 130500Z AUTO 00000KT 8000 NCD 16/13 Q1015

Time: 07:33 (05:33 UTC)

Forecast

The report was made 3 hours and 33 minutes ago, at 02:00 UTC
Forecast valid from 13 at 03 UTC to 14 at 03 UTC
Wind 5 kt from variable directions
Visibility 10 km or more
no clouds below 1500 m and no cumulonimbus
Probability 40% :
Temporary
from 13 at 10 UTC to 13 at 19 UTC
Wind 17 kt from the South/Southwest with gusts up to 35 kt
Few clouds at a height of 4500 ft, Towering cumulus.

TAF: LESA 130200Z 1303/1403 VRB05KT CAVOK TX29/1315Z TN14/1305Z PROB40 TEMPO 1310/1319 21017G35KT FEW045TCU

Weather observations and forecasts of more than 4000 airports (METAR and TAF reports).

The available stations are represented by yellow and red dots on the map.

Hover mouse over dot to see the name of the station.

Then click to see weather observations and forecasts.

To change the map : click on the green buttons with a black cross to zoom in, on the green button with a dash to zoom out, or on the green arrows for adjacent maps.


METAR-TAF: